• Join FlightAware (Why Join?)
  • Login
  • US Flag 
07:02AM EDT


 

Airport Tracker/Info


-or-


 

Live Flight TrackerFlight Track Log ✈ ASQ5963 ✈ 15-Jul-2013 ✈ KIAH - KTYS

Flight Track Log - Related Links

Times and Time Zones

All times are in EDT time to prevent confusion due to time zone crossing. See the ASQ5963 flight status page for this flight to view local times or setup timezone preferences in your user account.

Time Position Orientation Groundspeed Altitude Reporting Facility
EDT Latitude Longitude Course Direction KTS MPH feet Rate Location/Type
02:25PM 29.9594 -95.3414 90° East 158 182 700  Level Houston Center
02:27PM 29.9394 -95.2836 112° Southeast 208 239 2,400 1,500 Climbing Houston Center
02:27PM 29.9267 -95.2153 102° East 250 288 3,800 660 Climbing Houston Center
02:29PM 29.9833 -94.8347 90° East  Level FlightAware Approximate
02:29PM 29.9086 -95.1086 101° East 253 291 4,000  Level Houston Center
02:30PM 29.9834 -94.7101 90° East  Level FlightAware Approximate
02:30PM 29.8886 -95.0303 106° East 253 291 5,900  Level Houston Center
02:31PM 29.9833 -94.5854 90° East  Level FlightAware Approximate
02:31PM 29.8672 -94.9500 107° East 258 297 8,000  Level Houston Center
02:32PM 29.8450 -94.8683 107° East 265 305 9,900 1,740 Climbing Houston Center
02:33PM 29.8225 -94.7819 107° East 278 320 11,700 1,740 Climbing Houston Center
02:34PM 29.8003 -94.6942 106° East 283 326 13,500 1,680 Climbing Houston Center
02:35PM 29.7986 -94.6050 91° East 295 339 15,200 1,380 Climbing Houston Center
02:36PM 29.8192 -94.4908 78° East 305 351 16,400 1,020 Climbing Houston Center
02:37PM 29.8331 -94.3886 81° East 321 369 17,400 900 Climbing Houston Center
02:38PM 29.8456 -94.2797 82° East 340 391 18,300 900 Climbing Houston Center
02:39PM 29.8731 -94.1703 74° East 356 410 19,300 960 Climbing Houston Center
02:40PM 29.9058 -94.0442 73° East 365 420 20,400 960 Climbing Houston Center
02:41PM 29.9347 -93.9314 74° East 368 423 21,400 960 Climbing Houston Center
02:42PM 29.9628 -93.8147 74° East 378 435 22,400 900 Climbing Houston Center
02:43PM 29.9922 -93.6994 74° East 377 434 23,300 960 Climbing Houston Center
02:45PM 30.0561 -93.4456 74° East 379 436 25,500 1,020 Climbing Houston Center
02:46PM 30.0842 -93.3314 74° East 377 434 26,500 900 Climbing Houston Center
02:47PM 30.1128 -93.2169 74° East 376 433 27,400 900 Climbing Houston Center
02:48PM 30.1428 -93.1036 73° East 374 430 28,400 960 Climbing Houston Center
02:50PM 30.1950 -93.0011 59° Northeast 376 433 29,400 960 Climbing Houston Center
02:51PM 30.2192 -92.8631 79° East 369 425 30,500 960 Climbing Houston Center
02:52PM 30.2394 -92.7478 78° East 369 425 31,500 960 Climbing Houston Center
02:53PM 30.2594 -92.6333 79° East 366 421 32,500 720 Climbing Houston Center
02:54PM 30.2792 -92.5175 79° East 369 425 33,000 240 Climbing Houston Center
02:55PM 30.3011 -92.3933 78° East 392 451 33,000  Level Houston Center
02:56PM 30.3486 -92.2719 66° East 408 470 33,000  Level Houston Center
02:57PM 30.4375 -92.1456 51° Northeast 418 481 33,000  Level Houston Center
02:58PM 30.5236 -92.0494 44° Northeast 429 494 33,000 720 Level Houston Center
02:59PM 30.6056 -91.9628 42° Northeast 414 476 34,500 1,200 Climbing Houston Center
03:00PM 30.6881 -91.8900 37° Northeast 389 448 35,500 900 Climbing Houston Center
03:01PM 30.7692 -91.8175 38° Northeast 376 433 36,400 720 Climbing Houston Center
03:02PM 30.8656 -91.7344 36° Northeast 366 421 37,000 240 Climbing Houston Center
03:03PM 30.9425 -91.6528 42° Northeast 372 428 37,000  Level Houston Center
03:04PM 31.0206 -91.5678 43° Northeast 379 436 37,000  Level Houston Center
03:05PM 31.1014 -91.4750 44° Northeast 396 456 37,000  Level Houston Center
03:06PM 31.1744 -91.3547 55° Northeast 428 493 37,000  Level Houston Center
03:07PM 31.2339 -91.2306 61° Northeast 438 504 37,000  Level Houston Center
03:08PM 31.3033 -91.0872 60° Northeast 446 513 37,000  Level Houston Center
03:09PM 31.3569 -90.9767 60° Northeast 450 518 37,000  Level Houston Center
03:10PM 31.4311 -90.8236 60° Northeast 450 518 37,000  Level Houston Center
03:11PM 31.5039 -90.7042 54° Northeast 452 520 37,000 -60 Level Houston Center
03:12PM 31.5822 -90.5922 51° Northeast 447 514 36,900  Descending Houston Center
03:13PM 31.6625 -90.4792 50° Northeast 449 517 37,000  Climbing Houston Center
03:14PM 31.7408 -90.3678 50° Northeast 444 511 37,000 -60 Level Houston Center
03:15PM 31.8194 -90.2556 50° Northeast 443 510 36,900  Descending Houston Center
03:16PM 31.8969 -90.1444 51° Northeast 442 509 37,000  Climbing Houston Center
03:17PM 31.9783 -90.0267 51° Northeast 441 507 37,000 -600 Level Memphis Center
03:18PM 32.0553 -89.9136 51° Northeast 441 507 35,800 -1,020 Descending Memphis Center
03:19PM 32.1425 -89.7881 51° Northeast 441 507 35,000 -420 Descending Memphis Center
03:20PM 32.2192 -89.6819 49° Northeast 441 507 35,000  Level Memphis Center
03:21PM 32.2936 -89.5683 52° Northeast 441 507 35,000  Level Memphis Center
03:22PM 32.3700 -89.4594 50° Northeast 436 502 35,000  Level Memphis Center
03:23PM 32.4486 -89.3431 51° Northeast 436 502 35,000  Level Memphis Center
03:24PM 32.5289 -89.2264 51° Northeast 436 502 35,000  Level Memphis Center
03:25PM 32.6092 -89.1094 51° Northeast 448 516 35,000  Level Memphis Center
03:26PM 32.6853 -88.9947 52° Northeast 448 516 35,000  Level Memphis Center
03:27PM 32.7633 -88.8800 51° Northeast 448 516 35,000  Level Memphis Center
03:28PM 32.8411 -88.7675 51° Northeast 448 516 35,000  Level Memphis Center
03:29PM 32.9128 -88.6622 51° Northeast 448 516 35,000  Level Memphis Center
03:30PM 32.9886 -88.5467 52° Northeast 448 516 35,000  Level Memphis Center
03:32PM 33.1531 -88.2964 52° Northeast 442 509 35,000  Level Atlanta Center
03:33PM 33.2297 -88.1836 51° Northeast 442 509 35,000  Level Atlanta Center
03:34PM 33.3047 -88.0678 52° Northeast 442 509 35,000  Level Atlanta Center
03:35PM 33.3814 -87.9494 52° Northeast 442 509 35,000  Level Atlanta Center
03:36PM 33.4583 -87.8333 52° Northeast 447 514 35,000  Level Atlanta Center
03:37PM 33.5347 -87.7147 52° Northeast 447 514 35,000  Level Atlanta Center
03:38PM 33.6114 -87.5983 52° Northeast 447 514 35,000  Level Atlanta Center
03:39PM 33.6833 -87.4889 52° Northeast 447 514 35,000  Level Atlanta Center
03:40PM 33.7575 -87.3694 53° Northeast 447 514 35,000  Level Atlanta Center
03:41PM 33.8336 -87.2547 51° Northeast 447 514 35,000  Level Atlanta Center
03:42PM 33.9097 -87.1350 53° Northeast 447 514 35,000  Level Atlanta Center
03:43PM 33.9836 -87.0200 52° Northeast 442 509 35,000  Level Atlanta Center
03:44PM 34.0594 -86.9022 52° Northeast 442 509 35,000  Level Atlanta Center
03:45PM 34.1331 -86.7842 53° Northeast 442 509 35,000  Level Atlanta Center
03:46PM 34.2086 -86.6661 52° Northeast 442 509 35,000  Level Atlanta Center
03:47PM 34.2842 -86.5503 52° Northeast 442 509 35,000  Level Atlanta Center
03:48PM 34.3597 -86.4317 52° Northeast 436 502 35,000  Level Atlanta Center
03:49PM 34.4328 -86.3156 53° Northeast 436 502 35,000 -60 Level Atlanta Center
03:50PM 34.5058 -86.1989 53° Northeast 436 502 34,900 -540 Descending Atlanta Center
03:51PM 34.5767 -86.0822 54° Northeast 431 496 34,000 -900 Descending Atlanta Center
03:52PM 34.6517 -85.9681 51° Northeast 431 496 33,100 -960 Descending Atlanta Center
03:53PM 34.7264 -85.8483 53° Northeast 431 496 32,100 -1,020 Descending Atlanta Center
03:54PM 34.8056 -85.7211 53° Northeast 426 490 31,100 -900 Descending Atlanta Center
03:55PM 34.8800 -85.6036 52° Northeast 431 496 30,300 -960 Descending Atlanta Center
03:56PM 34.9525 -85.4833 54° Northeast 431 496 29,200 -660 Descending Atlanta Center
03:57PM 35.0267 -85.3653 52° Northeast 431 496 29,000 -120 Descending Atlanta Center
03:58PM 35.0989 -85.2447 54° Northeast 431 496 29,000  Level Atlanta Center
03:59PM 35.1711 -85.1261 53° Northeast 431 496 29,000 -780 Level Atlanta Center
04:00PM 35.2367 -85.0153 54° Northeast 431 496 27,500 -2,100 Descending Atlanta Center
04:01PM 35.3022 -84.9067 53° Northeast 416 479 24,900 -2,760 Descending Atlanta Center
04:02PM 35.3697 -84.7978 53° Northeast 404 465 22,000 -3,000 Descending Atlanta Center
04:03PM 35.4308 -84.6964 53° Northeast 392 451 19,000 -2,820 Descending Atlanta Center
04:04PM 35.4917 -84.5947 54° Northeast 381 438 16,400 -2,580 Descending Atlanta Center
04:05PM 35.5422 -84.4906 59° Northeast 366 421 13,900 -2,340 Descending Atlanta Center
04:06PM 35.5883 -84.3936 60° Northeast 345 397 11,800 -2,220 Descending Atlanta Center
04:07PM 35.6303 -84.3044 60° Northeast 313 360 9,500 -2,280 Descending Atlanta Center
04:08PM 35.6681 -84.2253 60° Northeast 286 329 7,300 -2,340 Descending Atlanta Center
04:09PM 35.7058 -84.1514 58° Northeast 271 312 4,900 -2,400 Descending Atlanta Center